sensor_id;sensor_type;location;lat;lon;timestamp;P1;durP1;ratioP1;P2;durP2;ratioP2
61336;SDS011;47212;41.326;2.104;2024-03-06T00:00:52;5.57;;;3.20;;
61336;SDS011;47212;41.326;2.104;2024-03-06T00:06:10;4.70;;;2.95;;
61336;SDS011;47212;41.326;2.104;2024-03-06T00:11:21;9.32;;;4.85;;
61336;SDS011;47212;41.326;2.104;2024-03-06T00:16:30;10.02;;;4.47;;
61336;SDS011;47212;41.326;2.104;2024-03-06T00:21:37;9.35;;;4.25;;
61336;SDS011;47212;41.326;2.104;2024-03-06T00:26:43;9.32;;;4.13;;
61336;SDS011;47212;41.326;2.104;2024-03-06T00:31:50;8.82;;;3.45;;
61336;SDS011;47212;41.326;2.104;2024-03-06T00:37:06;7.57;;;3.30;;
61336;SDS011;47212;41.326;2.104;2024-03-06T00:42:16;7.63;;;3.35;;
61336;SDS011;47212;41.326;2.104;2024-03-06T00:47:18;7.43;;;3.80;;
61336;SDS011;47212;41.326;2.104;2024-03-06T00:52:21;9.10;;;3.95;;
61336;SDS011;47212;41.326;2.104;2024-03-06T00:57:35;7.93;;;3.40;;
61336;SDS011;47212;41.326;2.104;2024-03-06T01:02:58;6.80;;;3.60;;
61336;SDS011;47212;41.326;2.104;2024-03-06T01:08:21;7.05;;;3.80;;
61336;SDS011;47212;41.326;2.104;2024-03-06T01:13:34;10.45;;;3.50;;
61336;SDS011;47212;41.326;2.104;2024-03-06T01:18:40;6.53;;;4.05;;
61336;SDS011;47212;41.326;2.104;2024-03-06T01:23:50;9.65;;;3.90;;
61336;SDS011;47212;41.326;2.104;2024-03-06T01:28:56;7.43;;;3.88;;
61336;SDS011;47212;41.326;2.104;2024-03-06T01:34:03;9.18;;;3.65;;
61336;SDS011;47212;41.326;2.104;2024-03-06T01:39:07;8.05;;;3.90;;
61336;SDS011;47212;41.326;2.104;2024-03-06T01:44:13;6.63;;;3.80;;
61336;SDS011;47212;41.326;2.104;2024-03-06T01:49:20;12.30;;;4.65;;
61336;SDS011;47212;41.326;2.104;2024-03-06T01:54:45;5.72;;;3.83;;
61336;SDS011;47212;41.326;2.104;2024-03-06T01:59:55;6.97;;;4.25;;
61336;SDS011;47212;41.326;2.104;2024-03-06T02:05:13;9.93;;;5.13;;
61336;SDS011;47212;41.326;2.104;2024-03-06T02:15:46;8.82;;;4.18;;
61336;SDS011;47212;41.326;2.104;2024-03-06T02:25:58;13.18;;;4.63;;
61336;SDS011;47212;41.326;2.104;2024-03-06T02:31:06;9.77;;;5.00;;
61336;SDS011;47212;41.326;2.104;2024-03-06T02:36:15;9.98;;;5.45;;
61336;SDS011;47212;41.326;2.104;2024-03-06T02:41:30;13.43;;;5.20;;
61336;SDS011;47212;41.326;2.104;2024-03-06T02:46:37;12.77;;;5.55;;
61336;SDS011;47212;41.326;2.104;2024-03-06T02:51:41;11.57;;;6.15;;
61336;SDS011;47212;41.326;2.104;2024-03-06T02:56:59;11.73;;;6.03;;
61336;SDS011;47212;41.326;2.104;2024-03-06T03:02:07;12.00;;;5.65;;
61336;SDS011;47212;41.326;2.104;2024-03-06T03:07:16;9.73;;;5.68;;
61336;SDS011;47212;41.326;2.104;2024-03-06T03:12:22;11.00;;;5.25;;
61336;SDS011;47212;41.326;2.104;2024-03-06T03:17:27;13.73;;;5.55;;
61336;SDS011;47212;41.326;2.104;2024-03-06T03:22:38;9.27;;;5.22;;
61336;SDS011;47212;41.326;2.104;2024-03-06T03:27:44;10.13;;;4.85;;
61336;SDS011;47212;41.326;2.104;2024-03-06T03:32:51;12.70;;;5.82;;
61336;SDS011;47212;41.326;2.104;2024-03-06T03:38:04;7.45;;;4.05;;
61336;SDS011;47212;41.326;2.104;2024-03-06T03:43:09;7.53;;;3.60;;
61336;SDS011;47212;41.326;2.104;2024-03-06T03:48:20;9.80;;;3.92;;
61336;SDS011;47212;41.326;2.104;2024-03-06T03:53:27;6.75;;;3.40;;
61336;SDS011;47212;41.326;2.104;2024-03-06T03:58:41;9.50;;;3.60;;
61336;SDS011;47212;41.326;2.104;2024-03-06T04:03:46;7.35;;;3.45;;
61336;SDS011;47212;41.326;2.104;2024-03-06T04:08:54;6.28;;;2.97;;
61336;SDS011;47212;41.326;2.104;2024-03-06T04:14:09;9.82;;;3.55;;
61336;SDS011;47212;41.326;2.104;2024-03-06T04:19:32;7.18;;;3.03;;
61336;SDS011;47212;41.326;2.104;2024-03-06T04:24:42;6.07;;;3.10;;
61336;SDS011;47212;41.326;2.104;2024-03-06T04:29:53;7.45;;;2.95;;
61336;SDS011;47212;41.326;2.104;2024-03-06T04:35:01;6.45;;;3.22;;
61336;SDS011;47212;41.326;2.104;2024-03-06T04:40:07;6.47;;;2.63;;
61336;SDS011;47212;41.326;2.104;2024-03-06T04:45:30;5.65;;;2.20;;
61336;SDS011;47212;41.326;2.104;2024-03-06T04:51:01;3.70;;;2.10;;
61336;SDS011;47212;41.326;2.104;2024-03-06T04:56:08;4.70;;;2.45;;
61336;SDS011;47212;41.326;2.104;2024-03-06T05:07:01;4.20;;;2.33;;
61336;SDS011;47212;41.326;2.104;2024-03-06T05:12:23;4.18;;;2.30;;
61336;SDS011;47212;41.326;2.104;2024-03-06T05:17:47;4.03;;;1.90;;
61336;SDS011;47212;41.326;2.104;2024-03-06T05:23:09;3.63;;;2.13;;
61336;SDS011;47212;41.326;2.104;2024-03-06T05:28:36;3.83;;;2.20;;
61336;SDS011;47212;41.326;2.104;2024-03-06T05:33:58;7.85;;;2.47;;
61336;SDS011;47212;41.326;2.104;2024-03-06T05:39:23;4.93;;;1.98;;
61336;SDS011;47212;41.326;2.104;2024-03-06T05:44:44;3.85;;;1.80;;
61336;SDS011;47212;41.326;2.104;2024-03-06T05:50:11;4.13;;;2.10;;
61336;SDS011;47212;41.326;2.104;2024-03-06T05:55:33;5.50;;;2.43;;
61336;SDS011;47212;41.326;2.104;2024-03-06T06:01:03;2.77;;;1.73;;
61336;SDS011;47212;41.326;2.104;2024-03-06T06:06:11;4.15;;;2.17;;
61336;SDS011;47212;41.326;2.104;2024-03-06T06:11:33;4.30;;;2.00;;
61336;SDS011;47212;41.326;2.104;2024-03-06T06:16:41;4.85;;;2.25;;
61336;SDS011;47212;41.326;2.104;2024-03-06T06:21:53;4.38;;;2.10;;
61336;SDS011;47212;41.326;2.104;2024-03-06T06:27:02;5.38;;;2.00;;
61336;SDS011;47212;41.326;2.104;2024-03-06T06:32:10;2.70;;;1.65;;
61336;SDS011;47212;41.326;2.104;2024-03-06T06:37:22;4.07;;;2.15;;
61336;SDS011;47212;41.326;2.104;2024-03-06T06:42:28;3.45;;;1.77;;
61336;SDS011;47212;41.326;2.104;2024-03-06T06:47:40;4.72;;;2.08;;
61336;SDS011;47212;41.326;2.104;2024-03-06T06:52:58;4.68;;;2.70;;
61336;SDS011;47212;41.326;2.104;2024-03-06T06:58:07;6.72;;;3.00;;
61336;SDS011;47212;41.326;2.104;2024-03-06T07:03:17;6.43;;;2.90;;
61336;SDS011;47212;41.326;2.104;2024-03-06T07:08:24;5.85;;;3.10;;
61336;SDS011;47212;41.326;2.104;2024-03-06T07:13:35;4.72;;;2.60;;
61336;SDS011;47212;41.326;2.104;2024-03-06T07:18:51;33.83;;;18.60;;
61336;SDS011;47212;41.326;2.104;2024-03-06T07:24:05;15.50;;;11.10;;
61336;SDS011;47212;41.326;2.104;2024-03-06T07:29:12;9.57;;;5.70;;
61336;SDS011;47212;41.326;2.104;2024-03-06T07:34:18;6.43;;;3.72;;
61336;SDS011;47212;41.326;2.104;2024-03-06T07:39:37;5.70;;;3.33;;
61336;SDS011;47212;41.326;2.104;2024-03-06T07:44:42;4.40;;;2.00;;
61336;SDS011;47212;41.326;2.104;2024-03-06T07:49:53;5.47;;;2.20;;
61336;SDS011;47212;41.326;2.104;2024-03-06T07:55:00;8.50;;;2.40;;
61336;SDS011;47212;41.326;2.104;2024-03-06T08:00:06;4.65;;;2.30;;
61336;SDS011;47212;41.326;2.104;2024-03-06T08:05:26;4.97;;;2.40;;
61336;SDS011;47212;41.326;2.104;2024-03-06T08:10:45;3.67;;;2.20;;
61336;SDS011;47212;41.326;2.104;2024-03-06T08:15:50;5.70;;;2.30;;
61336;SDS011;47212;41.326;2.104;2024-03-06T08:20:56;4.35;;;2.50;;
61336;SDS011;47212;41.326;2.104;2024-03-06T08:26:03;3.67;;;2.00;;
61336;SDS011;47212;41.326;2.104;2024-03-06T08:31:11;6.50;;;2.47;;
61336;SDS011;47212;41.326;2.104;2024-03-06T08:36:23;4.00;;;2.07;;
61336;SDS011;47212;41.326;2.104;2024-03-06T08:46:41;7.03;;;1.95;;
61336;SDS011;47212;41.326;2.104;2024-03-06T08:51:49;6.20;;;2.30;;
61336;SDS011;47212;41.326;2.104;2024-03-06T08:57:06;5.53;;;1.95;;
61336;SDS011;47212;41.326;2.104;2024-03-06T09:02:14;5.00;;;2.55;;
61336;SDS011;47212;41.326;2.104;2024-03-06T09:07:23;4.82;;;1.90;;
61336;SDS011;47212;41.326;2.104;2024-03-06T09:12:30;5.65;;;2.35;;
61336;SDS011;47212;41.326;2.104;2024-03-06T09:17:43;6.40;;;2.53;;
61336;SDS011;47212;41.326;2.104;2024-03-06T09:22:48;4.75;;;2.40;;
61336;SDS011;47212;41.326;2.104;2024-03-06T09:27:55;7.07;;;2.13;;
61336;SDS011;47212;41.326;2.104;2024-03-06T09:33:04;3.72;;;1.92;;
61336;SDS011;47212;41.326;2.104;2024-03-06T09:38:23;3.95;;;1.85;;
61336;SDS011;47212;41.326;2.104;2024-03-06T09:43:30;5.05;;;1.60;;
61336;SDS011;47212;41.326;2.104;2024-03-06T09:48:33;5.90;;;1.98;;
61336;SDS011;47212;41.326;2.104;2024-03-06T09:53:43;5.63;;;2.10;;
61336;SDS011;47212;41.326;2.104;2024-03-06T09:58:54;6.25;;;2.08;;
61336;SDS011;47212;41.326;2.104;2024-03-06T10:04:19;8.85;;;2.40;;
61336;SDS011;47212;41.326;2.104;2024-03-06T10:09:47;6.00;;;1.90;;
61336;SDS011;47212;41.326;2.104;2024-03-06T10:14:54;6.88;;;2.08;;
61336;SDS011;47212;41.326;2.104;2024-03-06T10:20:20;4.32;;;1.48;;
61336;SDS011;47212;41.326;2.104;2024-03-06T10:25:28;7.10;;;2.47;;
61336;SDS011;47212;41.326;2.104;2024-03-06T10:30:33;7.13;;;2.10;;
61336;SDS011;47212;41.326;2.104;2024-03-06T10:35:43;4.63;;;1.73;;
61336;SDS011;47212;41.326;2.104;2024-03-06T10:41:06;8.73;;;2.03;;
61336;SDS011;47212;41.326;2.104;2024-03-06T10:46:12;4.57;;;1.80;;
61336;SDS011;47212;41.326;2.104;2024-03-06T10:51:26;7.63;;;2.35;;
61336;SDS011;47212;41.326;2.104;2024-03-06T10:56:44;5.10;;;2.08;;
61336;SDS011;47212;41.326;2.104;2024-03-06T11:01:52;5.22;;;2.25;;
61336;SDS011;47212;41.326;2.104;2024-03-06T11:07:01;7.97;;;3.17;;
61336;SDS011;47212;41.326;2.104;2024-03-06T11:12:14;7.25;;;2.47;;
61336;SDS011;47212;41.326;2.104;2024-03-06T11:17:37;7.20;;;2.50;;
61336;SDS011;47212;41.326;2.104;2024-03-06T11:28:25;9.48;;;2.45;;
61336;SDS011;47212;41.326;2.104;2024-03-06T11:33:42;8.75;;;2.40;;
61336;SDS011;47212;41.326;2.104;2024-03-06T11:39:05;5.38;;;2.05;;
61336;SDS011;47212;41.326;2.104;2024-03-06T11:44:18;10.25;;;2.17;;
61336;SDS011;47212;41.326;2.104;2024-03-06T11:49:32;8.90;;;2.50;;
61336;SDS011;47212;41.326;2.104;2024-03-06T11:54:50;9.93;;;2.40;;
61336;SDS011;47212;41.326;2.104;2024-03-06T12:00:10;10.90;;;2.20;;
61336;SDS011;47212;41.326;2.104;2024-03-06T12:05:17;5.82;;;1.58;;
61336;SDS011;47212;41.326;2.104;2024-03-06T12:10:25;7.15;;;2.78;;
61336;SDS011;47212;41.326;2.104;2024-03-06T12:15:31;10.50;;;2.40;;
61336;SDS011;47212;41.326;2.104;2024-03-06T12:20:44;7.13;;;2.55;;
61336;SDS011;47212;41.326;2.104;2024-03-06T12:26:08;6.85;;;2.53;;
61336;SDS011;47212;41.326;2.104;2024-03-06T12:31:18;8.05;;;2.22;;
61336;SDS011;47212;41.326;2.104;2024-03-06T12:36:25;13.27;;;2.50;;
61336;SDS011;47212;41.326;2.104;2024-03-06T12:41:41;11.45;;;2.80;;
61336;SDS011;47212;41.326;2.104;2024-03-06T12:46:46;6.68;;;2.13;;
61336;SDS011;47212;41.326;2.104;2024-03-06T12:52:16;5.40;;;2.25;;
61336;SDS011;47212;41.326;2.104;2024-03-06T12:57:22;4.78;;;1.92;;
61336;SDS011;47212;41.326;2.104;2024-03-06T13:02:28;6.35;;;2.35;;
61336;SDS011;47212;41.326;2.104;2024-03-06T13:07:34;9.45;;;2.75;;
61336;SDS011;47212;41.326;2.104;2024-03-06T13:12:49;8.15;;;2.10;;
61336;SDS011;47212;41.326;2.104;2024-03-06T13:18:05;4.85;;;1.83;;
61336;SDS011;47212;41.326;2.104;2024-03-06T13:23:12;7.30;;;2.55;;
61336;SDS011;47212;41.326;2.104;2024-03-06T13:28:23;5.05;;;2.10;;
61336;SDS011;47212;41.326;2.104;2024-03-06T13:33:28;7.10;;;2.40;;
61336;SDS011;47212;41.326;2.104;2024-03-06T13:38:33;5.28;;;2.15;;
61336;SDS011;47212;41.326;2.104;2024-03-06T13:43:41;6.28;;;2.72;;
61336;SDS011;47212;41.326;2.104;2024-03-06T13:48:46;9.20;;;2.83;;
61336;SDS011;47212;41.326;2.104;2024-03-06T13:53:57;11.13;;;4.10;;
61336;SDS011;47212;41.326;2.104;2024-03-06T13:59:06;4.22;;;2.42;;
61336;SDS011;47212;41.326;2.104;2024-03-06T14:04:13;9.20;;;2.85;;
61336;SDS011;47212;41.326;2.104;2024-03-06T14:09:22;5.45;;;2.00;;
61336;SDS011;47212;41.326;2.104;2024-03-06T14:14:28;6.25;;;2.28;;
61336;SDS011;47212;41.326;2.104;2024-03-06T14:19:44;10.18;;;4.95;;
61336;SDS011;47212;41.326;2.104;2024-03-06T14:24:49;9.73;;;3.92;;
61336;SDS011;47212;41.326;2.104;2024-03-06T14:29:59;8.93;;;2.63;;
61336;SDS011;47212;41.326;2.104;2024-03-06T14:35:08;5.90;;;2.25;;
61336;SDS011;47212;41.326;2.104;2024-03-06T14:40:33;4.10;;;1.90;;
61336;SDS011;47212;41.326;2.104;2024-03-06T14:45:45;6.68;;;3.15;;
61336;SDS011;47212;41.326;2.104;2024-03-06T14:50:49;4.78;;;2.30;;
61336;SDS011;47212;41.326;2.104;2024-03-06T14:55:59;4.90;;;1.40;;
61336;SDS011;47212;41.326;2.104;2024-03-06T15:01:12;5.00;;;1.75;;
61336;SDS011;47212;41.326;2.104;2024-03-06T15:06:17;3.40;;;1.38;;
61336;SDS011;47212;41.326;2.104;2024-03-06T15:11:29;6.82;;;1.48;;
61336;SDS011;47212;41.326;2.104;2024-03-06T15:17:06;3.38;;;1.13;;
61336;SDS011;47212;41.326;2.104;2024-03-06T15:22:15;2.35;;;1.00;;
61336;SDS011;47212;41.326;2.104;2024-03-06T15:27:25;2.03;;;1.10;;
61336;SDS011;47212;41.326;2.104;2024-03-06T15:32:43;2.72;;;1.13;;
61336;SDS011;47212;41.326;2.104;2024-03-06T15:38:16;3.92;;;1.23;;
61336;SDS011;47212;41.326;2.104;2024-03-06T15:43:40;4.60;;;1.30;;
61336;SDS011;47212;41.326;2.104;2024-03-06T15:48:56;2.67;;;1.10;;
61336;SDS011;47212;41.326;2.104;2024-03-06T15:54:02;2.10;;;1.50;;
61336;SDS011;47212;41.326;2.104;2024-03-06T16:04:30;2.72;;;1.10;;
61336;SDS011;47212;41.326;2.104;2024-03-06T16:14:55;4.50;;;1.77;;
61336;SDS011;47212;41.326;2.104;2024-03-06T16:20:01;4.57;;;1.40;;
61336;SDS011;47212;41.326;2.104;2024-03-06T16:25:08;6.45;;;1.42;;
61336;SDS011;47212;41.326;2.104;2024-03-06T16:30:16;5.03;;;1.30;;
61336;SDS011;47212;41.326;2.104;2024-03-06T16:35:22;1.83;;;1.27;;
61336;SDS011;47212;41.326;2.104;2024-03-06T16:40:28;2.47;;;1.40;;
61336;SDS011;47212;41.326;2.104;2024-03-06T16:46:00;3.90;;;1.23;;
61336;SDS011;47212;41.326;2.104;2024-03-06T16:51:06;1.98;;;1.30;;
61336;SDS011;47212;41.326;2.104;2024-03-06T16:56:14;4.05;;;1.15;;
61336;SDS011;47212;41.326;2.104;2024-03-06T17:01:28;2.08;;;1.00;;
61336;SDS011;47212;41.326;2.104;2024-03-06T17:12:13;1.95;;;1.15;;
61336;SDS011;47212;41.326;2.104;2024-03-06T17:17:18;2.25;;;1.13;;
61336;SDS011;47212;41.326;2.104;2024-03-06T17:22:42;2.92;;;1.60;;
61336;SDS011;47212;41.326;2.104;2024-03-06T17:27:51;3.05;;;1.30;;
61336;SDS011;47212;41.326;2.104;2024-03-06T17:33:01;3.90;;;1.50;;
61336;SDS011;47212;41.326;2.104;2024-03-06T17:38:08;6.47;;;1.20;;
61336;SDS011;47212;41.326;2.104;2024-03-06T17:43:20;2.90;;;1.20;;
61336;SDS011;47212;41.326;2.104;2024-03-06T17:48:25;2.53;;;1.35;;
61336;SDS011;47212;41.326;2.104;2024-03-06T17:53:32;4.80;;;1.60;;
61336;SDS011;47212;41.326;2.104;2024-03-06T18:04:20;2.47;;;1.02;;
61336;SDS011;47212;41.326;2.104;2024-03-06T18:09:35;3.00;;;1.15;;
61336;SDS011;47212;41.326;2.104;2024-03-06T18:14:44;2.88;;;1.10;;
61336;SDS011;47212;41.326;2.104;2024-03-06T18:25:29;3.33;;;1.35;;
61336;SDS011;47212;41.326;2.104;2024-03-06T18:30:39;3.53;;;1.10;;
61336;SDS011;47212;41.326;2.104;2024-03-06T18:35:49;3.58;;;1.50;;
61336;SDS011;47212;41.326;2.104;2024-03-06T18:41:05;6.18;;;1.58;;
61336;SDS011;47212;41.326;2.104;2024-03-06T18:46:38;8.90;;;2.10;;
61336;SDS011;47212;41.326;2.104;2024-03-06T18:51:48;7.85;;;2.05;;
61336;SDS011;47212;41.326;2.104;2024-03-06T18:56:56;4.78;;;1.92;;
61336;SDS011;47212;41.326;2.104;2024-03-06T19:02:02;3.45;;;1.77;;
61336;SDS011;47212;41.326;2.104;2024-03-06T19:07:07;6.60;;;2.00;;
61336;SDS011;47212;41.326;2.104;2024-03-06T19:12:18;4.95;;;1.75;;
61336;SDS011;47212;41.326;2.104;2024-03-06T19:17:33;3.42;;;1.67;;
61336;SDS011;47212;41.326;2.104;2024-03-06T19:22:39;3.05;;;1.63;;
61336;SDS011;47212;41.326;2.104;2024-03-06T19:27:52;3.10;;;1.42;;
61336;SDS011;47212;41.326;2.104;2024-03-06T19:32:59;3.35;;;1.40;;
61336;SDS011;47212;41.326;2.104;2024-03-06T19:38:10;6.05;;;1.40;;
61336;SDS011;47212;41.326;2.104;2024-03-06T19:43:18;2.10;;;0.98;;
61336;SDS011;47212;41.326;2.104;2024-03-06T19:48:23;3.05;;;1.70;;
61336;SDS011;47212;41.326;2.104;2024-03-06T19:53:36;1.77;;;1.20;;
61336;SDS011;47212;41.326;2.104;2024-03-06T19:58:41;1.75;;;1.20;;
61336;SDS011;47212;41.326;2.104;2024-03-06T20:03:44;2.55;;;1.45;;
61336;SDS011;47212;41.326;2.104;2024-03-06T20:08:56;2.45;;;1.15;;
61336;SDS011;47212;41.326;2.104;2024-03-06T20:14:01;3.42;;;1.40;;
61336;SDS011;47212;41.326;2.104;2024-03-06T20:19:06;3.78;;;1.50;;
61336;SDS011;47212;41.326;2.104;2024-03-06T20:24:10;4.00;;;1.80;;
61336;SDS011;47212;41.326;2.104;2024-03-06T20:29:19;4.07;;;1.40;;
61336;SDS011;47212;41.326;2.104;2024-03-06T20:34:25;3.10;;;1.70;;
61336;SDS011;47212;41.326;2.104;2024-03-06T20:39:34;6.15;;;1.73;;
61336;SDS011;47212;41.326;2.104;2024-03-06T20:44:41;4.35;;;1.98;;
61336;SDS011;47212;41.326;2.104;2024-03-06T20:49:51;3.92;;;2.15;;
61336;SDS011;47212;41.326;2.104;2024-03-06T20:54:59;6.72;;;1.92;;
61336;SDS011;47212;41.326;2.104;2024-03-06T21:00:10;5.65;;;2.05;;
61336;SDS011;47212;41.326;2.104;2024-03-06T21:05:20;4.53;;;2.35;;
61336;SDS011;47212;41.326;2.104;2024-03-06T21:10:26;4.32;;;2.30;;
61336;SDS011;47212;41.326;2.104;2024-03-06T21:15:35;4.38;;;2.40;;
61336;SDS011;47212;41.326;2.104;2024-03-06T21:20:40;8.23;;;2.40;;
61336;SDS011;47212;41.326;2.104;2024-03-06T21:25:46;8.80;;;3.45;;
61336;SDS011;47212;41.326;2.104;2024-03-06T21:30:54;6.05;;;3.42;;
61336;SDS011;47212;41.326;2.104;2024-03-06T21:36:09;6.60;;;3.80;;
61336;SDS011;47212;41.326;2.104;2024-03-06T21:41:16;7.32;;;3.20;;
61336;SDS011;47212;41.326;2.104;2024-03-06T21:46:25;6.70;;;3.38;;
61336;SDS011;47212;41.326;2.104;2024-03-06T21:51:33;5.03;;;3.38;;
61336;SDS011;47212;41.326;2.104;2024-03-06T21:56:44;7.20;;;3.15;;
61336;SDS011;47212;41.326;2.104;2024-03-06T22:01:56;5.95;;;3.00;;
61336;SDS011;47212;41.326;2.104;2024-03-06T22:07:15;9.70;;;3.45;;
61336;SDS011;47212;41.326;2.104;2024-03-06T22:12:19;6.15;;;3.45;;
61336;SDS011;47212;41.326;2.104;2024-03-06T22:17:24;5.18;;;3.13;;
61336;SDS011;47212;41.326;2.104;2024-03-06T22:22:29;7.25;;;2.92;;
61336;SDS011;47212;41.326;2.104;2024-03-06T22:30:50;6.60;;;3.33;;
61336;SDS011;47212;41.326;2.104;2024-03-06T22:35:54;6.80;;;3.17;;
61336;SDS011;47212;41.326;2.104;2024-03-06T22:40:59;9.40;;;3.00;;
61336;SDS011;47212;41.326;2.104;2024-03-06T22:46:05;6.43;;;3.05;;
61336;SDS011;47212;41.326;2.104;2024-03-06T22:51:11;5.35;;;2.95;;
61336;SDS011;47212;41.326;2.104;2024-03-06T22:56:14;5.88;;;2.95;;
61336;SDS011;47212;41.326;2.104;2024-03-06T23:01:18;4.63;;;2.85;;
61336;SDS011;47212;41.326;2.104;2024-03-06T23:06:23;7.68;;;3.28;;
61336;SDS011;47212;41.326;2.104;2024-03-06T23:16:28;6.65;;;3.55;;
61336;SDS011;47212;41.326;2.104;2024-03-06T23:21:30;8.68;;;4.28;;
61336;SDS011;47212;41.326;2.104;2024-03-06T23:26:38;11.30;;;4.65;;
61336;SDS011;47212;41.326;2.104;2024-03-06T23:31:41;8.00;;;3.83;;
61336;SDS011;47212;41.326;2.104;2024-03-06T23:36:45;8.20;;;4.30;;
61336;SDS011;47212;41.326;2.104;2024-03-06T23:41:48;8.88;;;4.10;;
61336;SDS011;47212;41.326;2.104;2024-03-06T23:51:56;7.60;;;4.53;;
61336;SDS011;47212;41.326;2.104;2024-03-06T23:57:08;7.82;;;4.10;;
